METAR Data
IDs: Format: Raw Decoded Include TAF

Data at: 1913 UTC 09 Dec 2019

METAR for:KOUN (Norman/Univ Oklahoma, OK, US)
Text:KOUN 091847Z 32025G29KT 10SM SCT020 OVC200 06/M02 A2990
Temperature: 6.0°C ( 43°F)
Dewpoint: -2.0°C ( 28°F) [RH = 56%]
Pressure (altimeter):29.90 inches Hg (1012.6 mb)
Winds:from the NW (320 degrees) at 29 MPH (25 knots; 12.9 m/s) gusting to 33 MPH (29 knots; 14.9 m/s)
Visibility:10 or more sm (16+ km)
Ceiling:20000 feet AGL
Clouds: scattered clouds at 2000 feet AGL, overcast cloud deck at 20000 feet AGL
Text:KOUN 091747Z 32022G28KT 10SM OVC019 06/01 A2988
Temperature: 6.0°C ( 43°F)
Dewpoint: 1.0°C ( 34°F) [RH = 70%]
Pressure (altimeter):29.88 inches Hg (1011.9 mb)
Winds:from the NW (320 degrees) at 25 MPH (22 knots; 11.3 m/s) gusting to 32 MPH (28 knots; 14.4 m/s)
Visibility:10 or more sm (16+ km)
Ceiling:1900 feet AGL
Clouds: overcast cloud deck at 1900 feet AGL
Text:KOUN 091738Z 32020G25KT 10SM OVC019 07/02 A2987
Temperature: 7.0°C ( 45°F)
Dewpoint: 2.0°C ( 36°F) [RH = 70%]
Pressure (altimeter):29.87 inches Hg (1011.6 mb)
Winds:from the NW (320 degrees) at 23 MPH (20 knots; 10.3 m/s) gusting to 29 MPH (25 knots; 12.9 m/s)
Visibility:10 or more sm (16+ km)
Ceiling:1900 feet AGL
Clouds: overcast cloud deck at 1900 feet AGL
Text:KOUN 091647Z 32021G32KT 10SM OVC200 08/02 A2983
Temperature: 8.0°C ( 46°F)
Dewpoint: 2.0°C ( 36°F) [RH = 66%]
Pressure (altimeter):29.83 inches Hg (1010.2 mb)
Winds:from the NW (320 degrees) at 24 MPH (21 knots; 10.8 m/s) gusting to 37 MPH (32 knots; 16.5 m/s)
Visibility:10 or more sm (16+ km)
Ceiling:20000 feet AGL
Clouds: overcast cloud deck at 20000 feet AGL
Text:KOUN 091545Z 30019G30KT 10SM BKN200 09/02 A2978
Temperature: 9.0°C ( 48°F)
Dewpoint: 2.0°C ( 36°F) [RH = 61%]
Pressure (altimeter):29.78 inches Hg (1008.5 mb)
Winds:from the WNW (300 degrees) at 22 MPH (19 knots; 9.8 m/s) gusting to 34 MPH (30 knots; 15.4 m/s)
Visibility:10 or more sm (16+ km)
Ceiling:20000 feet AGL
Clouds: broken clouds at 20000 feet AGL
Text:KOUN 091447Z 28015G20KT 13SM 04 CLR 13/04 A2971
Temperature: 13.0°C ( 55°F)
Dewpoint: 4.0°C ( 39°F) [RH = 54%]
Pressure (altimeter):29.71 inches Hg (1006.2 mb)
Winds:from the W (280 degrees) at 17 MPH (15 knots; 7.7 m/s) gusting to 23 MPH (20 knots; 10.3 m/s)
Visibility: 13 sm ( 21 km)
Ceiling:at least 12,000 feet AGL
Clouds:sky clear below 12,000 feet AGL
Text:KOUN 091347Z 22008KT 10SM CLR 13/04 A2966
Temperature: 13.0°C ( 55°F)
Dewpoint: 4.0°C ( 39°F) [RH = 54%]
Pressure (altimeter):29.66 inches Hg (1004.5 mb)
Winds:from the SW (220 degrees) at 9 MPH (8 knots; 4.1 m/s)
Visibility:10 or more sm (16+ km)
Ceiling:at least 12,000 feet AGL
Clouds:sky clear below 12,000 feet AGL
Text:KOUN 091335Z AUTO 23008KT 10SM CLR 13/04 A2965 RMK AO2 T01270044
Temperature: 12.7°C ( 55°F)
Dewpoint: 4.4°C ( 40°F) [RH = 57%]
Pressure (altimeter):29.65 inches Hg (1004.1 mb)
Winds:from the SW (230 degrees) at 9 MPH (8 knots; 4.1 m/s)
Visibility:10 or more sm (16+ km)
Ceiling:at least 12,000 feet AGL
Clouds:sky clear below 12,000 feet AGL
QC Flag:automated observation with no human augmentation
Text:KOUN 091315Z AUTO 23008KT 10SM CLR 13/04 A2964 RMK AO2 T01290043
Temperature: 12.9°C ( 55°F)
Dewpoint: 4.3°C ( 40°F) [RH = 56%]
Pressure (altimeter):29.64 inches Hg (1003.8 mb)
Winds:from the SW (230 degrees) at 9 MPH (8 knots; 4.1 m/s)
Visibility:10 or more sm (16+ km)
Ceiling:at least 12,000 feet AGL
Clouds:sky clear below 12,000 feet AGL
QC Flag:automated observation with no human augmentation
Text:KOUN 091255Z AUTO 23009KT 10SM CLR 13/04 A2964 RMK AO2 T01260042
Temperature: 12.6°C ( 55°F)
Dewpoint: 4.2°C ( 40°F) [RH = 57%]
Pressure (altimeter):29.64 inches Hg (1003.8 mb)
Winds:from the SW (230 degrees) at 10 MPH (9 knots; 4.6 m/s)
Visibility:10 or more sm (16+ km)
Ceiling:at least 12,000 feet AGL
Clouds:sky clear below 12,000 feet AGL
QC Flag:automated observation with no human augmentation
Text:KOUN 091235Z AUTO 23009KT 10SM CLR 13/04 A2963 RMK AO2 T01250041
Temperature: 12.5°C ( 54°F)
Dewpoint: 4.1°C ( 39°F) [RH = 57%]
Pressure (altimeter):29.63 inches Hg (1003.5 mb)
Winds:from the SW (230 degrees) at 10 MPH (9 knots; 4.6 m/s)
Visibility:10 or more sm (16+ km)
Ceiling:at least 12,000 feet AGL
Clouds:sky clear below 12,000 feet AGL
QC Flag:automated observation with no human augmentation
Text:KOUN 091215Z AUTO 24007KT 10SM CLR 13/04 A2962 RMK AO2 T01300040
Temperature: 13.0°C ( 55°F)
Dewpoint: 4.0°C ( 39°F) [RH = 54%]
Pressure (altimeter):29.62 inches Hg (1003.1 mb)
Winds:from the WSW (240 degrees) at 8 MPH (7 knots; 3.6 m/s)
Visibility:10 or more sm (16+ km)
Ceiling:at least 12,000 feet AGL
Clouds:sky clear below 12,000 feet AGL
QC Flag:automated observation with no human augmentation
Text:KOUN 091155Z AUTO 23012KT 10SM CLR 13/04 A2962 RMK AO2 T01310041 10155 20118
Temperature: 13.1°C ( 56°F)
Dewpoint: 4.1°C ( 39°F) [RH = 54%]
Pressure (altimeter):29.62 inches Hg (1003.1 mb)
Winds:from the SW (230 degrees) at 14 MPH (12 knots; 6.2 m/s)
Visibility:10 or more sm (16+ km)
Ceiling:at least 12,000 feet AGL
Clouds:sky clear below 12,000 feet AGL
QC Flag:automated observation with no human augmentation
Text:KOUN 091135Z AUTO 22011KT 10SM CLR 13/04 A2960 RMK AO2 T01280041
Temperature: 12.8°C ( 55°F)
Dewpoint: 4.1°C ( 39°F) [RH = 55%]
Pressure (altimeter):29.60 inches Hg (1002.5 mb)
Winds:from the SW (220 degrees) at 13 MPH (11 knots; 5.7 m/s)
Visibility:10 or more sm (16+ km)
Ceiling:at least 12,000 feet AGL
Clouds:sky clear below 12,000 feet AGL
QC Flag:automated observation with no human augmentation
Text:KOUN 091115Z AUTO 22009KT 10SM CLR 13/04 A2960 RMK AO2 T01260043
Temperature: 12.6°C ( 55°F)
Dewpoint: 4.3°C ( 40°F) [RH = 57%]
Pressure (altimeter):29.60 inches Hg (1002.5 mb)
Winds:from the SW (220 degrees) at 10 MPH (9 knots; 4.6 m/s)
Visibility:10 or more sm (16+ km)
Ceiling:at least 12,000 feet AGL
Clouds:sky clear below 12,000 feet AGL
QC Flag:automated observation with no human augmentation
Text:KOUN 091055Z AUTO 22007KT 10SM CLR 12/04 A2960 RMK AO2 T01220041
Temperature: 12.2°C ( 54°F)
Dewpoint: 4.1°C ( 39°F) [RH = 58%]
Pressure (altimeter):29.60 inches Hg (1002.5 mb)
Winds:from the SW (220 degrees) at 8 MPH (7 knots; 3.6 m/s)
Visibility:10 or more sm (16+ km)
Ceiling:at least 12,000 feet AGL
Clouds:sky clear below 12,000 feet AGL
QC Flag:automated observation with no human augmentation
Text:KOUN 091035Z AUTO 23010KT 10SM CLR 13/04 A2960 RMK AO2 T01330043
Temperature: 13.3°C ( 56°F)
Dewpoint: 4.3°C ( 40°F) [RH = 54%]
Pressure (altimeter):29.60 inches Hg (1002.5 mb)
Winds:from the SW (230 degrees) at 12 MPH (10 knots; 5.1 m/s)
Visibility:10 or more sm (16+ km)
Ceiling:at least 12,000 feet AGL
Clouds:sky clear below 12,000 feet AGL
QC Flag:automated observation with no human augmentation
Text:KOUN 091015Z AUTO 22008KT 10SM CLR 13/05 A2960 RMK AO2 T01330045
Temperature: 13.3°C ( 56°F)
Dewpoint: 4.5°C ( 40°F) [RH = 55%]
Pressure (altimeter):29.60 inches Hg (1002.5 mb)
Winds:from the SW (220 degrees) at 9 MPH (8 knots; 4.1 m/s)
Visibility:10 or more sm (16+ km)
Ceiling:at least 12,000 feet AGL
Clouds:sky clear below 12,000 feet AGL
QC Flag:automated observation with no human augmentation
Text:KOUN 090955Z AUTO 23007KT 10SM CLR 13/05 A2959 RMK AO2 T01310048
Temperature: 13.1°C ( 56°F)
Dewpoint: 4.8°C ( 41°F) [RH = 57%]
Pressure (altimeter):29.59 inches Hg (1002.1 mb)
Winds:from the SW (230 degrees) at 8 MPH (7 knots; 3.6 m/s)
Visibility:10 or more sm (16+ km)
Ceiling:at least 12,000 feet AGL
Clouds:sky clear below 12,000 feet AGL
QC Flag:automated observation with no human augmentation
Text:KOUN 090935Z AUTO 22007KT 10SM CLR 14/05 A2960 RMK AO2 T01390049
Temperature: 13.9°C ( 57°F)
Dewpoint: 4.9°C ( 41°F) [RH = 55%]
Pressure (altimeter):29.60 inches Hg (1002.5 mb)
Winds:from the SW (220 degrees) at 8 MPH (7 knots; 3.6 m/s)
Visibility:10 or more sm (16+ km)
Ceiling:at least 12,000 feet AGL
Clouds:sky clear below 12,000 feet AGL
QC Flag:automated observation with no human augmentation
Text:KOUN 090915Z AUTO 23006KT 10SM CLR 14/05 A2959 RMK AO2 T01410051
Temperature: 14.1°C ( 57°F)
Dewpoint: 5.1°C ( 41°F) [RH = 55%]
Pressure (altimeter):29.59 inches Hg (1002.1 mb)
Winds:from the SW (230 degrees) at 7 MPH (6 knots; 3.1 m/s)
Visibility:10 or more sm (16+ km)
Ceiling:at least 12,000 feet AGL
Clouds:sky clear below 12,000 feet AGL
QC Flag:automated observation with no human augmentation
Text:KOUN 090855Z AUTO 21008KT 10SM CLR 14/05 A2959 RMK AO2 T01430054
Temperature: 14.3°C ( 58°F)
Dewpoint: 5.4°C ( 42°F) [RH = 55%]
Pressure (altimeter):29.59 inches Hg (1002.1 mb)
Winds:from the SSW (210 degrees) at 9 MPH (8 knots; 4.1 m/s)
Visibility:10 or more sm (16+ km)
Ceiling:at least 12,000 feet AGL
Clouds:sky clear below 12,000 feet AGL
QC Flag:automated observation with no human augmentation
Text:KOUN 090835Z AUTO 21008KT 10SM CLR 14/06 A2959 RMK AO2 T01450056
Temperature: 14.5°C ( 58°F)
Dewpoint: 5.6°C ( 42°F) [RH = 55%]
Pressure (altimeter):29.59 inches Hg (1002.1 mb)
Winds:from the SSW (210 degrees) at 9 MPH (8 knots; 4.1 m/s)
Visibility:10 or more sm (16+ km)
Ceiling:at least 12,000 feet AGL
Clouds:sky clear below 12,000 feet AGL
QC Flag:automated observation with no human augmentation
Text:KOUN 090815Z AUTO 21011KT 10SM CLR 15/06 A2959 RMK AO2 T01530058
Temperature: 15.3°C ( 60°F)
Dewpoint: 5.8°C ( 42°F) [RH = 53%]
Pressure (altimeter):29.59 inches Hg (1002.1 mb)
Winds:from the SSW (210 degrees) at 13 MPH (11 knots; 5.7 m/s)
Visibility:10 or more sm (16+ km)
Ceiling:at least 12,000 feet AGL
Clouds:sky clear below 12,000 feet AGL
QC Flag:automated observation with no human augmentation
Text:KOUN 090755Z AUTO 21008KT 10SM CLR 15/06 A2958 RMK AO2 T01470064
Temperature: 14.7°C ( 58°F)
Dewpoint: 6.4°C ( 44°F) [RH = 57%]
Pressure (altimeter):29.58 inches Hg (1001.8 mb)
Winds:from the SSW (210 degrees) at 9 MPH (8 knots; 4.1 m/s)
Visibility:10 or more sm (16+ km)
Ceiling:at least 12,000 feet AGL
Clouds:sky clear below 12,000 feet AGL
QC Flag:automated observation with no human augmentation
Text:KOUN 090735Z AUTO 20010KT 10SM CLR 14/07 A2958 RMK AO2 T01390068
Temperature: 13.9°C ( 57°F)
Dewpoint: 6.8°C ( 44°F) [RH = 62%]
Pressure (altimeter):29.58 inches Hg (1001.8 mb)
Winds:from the SSW (200 degrees) at 12 MPH (10 knots; 5.1 m/s)
Visibility:10 or more sm (16+ km)
Ceiling:at least 12,000 feet AGL
Clouds:sky clear below 12,000 feet AGL
QC Flag:automated observation with no human augmentation
Text:KOUN 090715Z AUTO 19010KT 10SM CLR 13/07 A2958 RMK AO2 T01340069
Temperature: 13.4°C ( 56°F)
Dewpoint: 6.9°C ( 44°F) [RH = 65%]
Pressure (altimeter):29.58 inches Hg (1001.8 mb)
Winds:from the S (190 degrees) at 12 MPH (10 knots; 5.1 m/s)
Visibility:10 or more sm (16+ km)
Ceiling:at least 12,000 feet AGL
Clouds:sky clear below 12,000 feet AGL
QC Flag:automated observation with no human augmentation